createdAt,value
2023-05-14T00:01:03.318Z,11.73
2023-05-14T00:03:49.982Z,11.57
2023-05-14T00:06:36.739Z,11.49
2023-05-14T00:09:23.498Z,11.47
2023-05-14T00:12:12.735Z,11.35
2023-05-14T00:14:58.934Z,11.36
2023-05-14T00:17:46.692Z,11.31
2023-05-14T00:20:33.458Z,11.19
2023-05-14T00:23:19.316Z,11.23
2023-05-14T00:26:05.988Z,11.23
2023-05-14T00:28:52.236Z,11.25
2023-05-14T00:31:38.545Z,11.23
2023-05-14T00:34:24.806Z,11.13
2023-05-14T00:37:11.357Z,11.19
2023-05-14T00:39:58.571Z,11.13
2023-05-14T00:42:44.973Z,10.98
2023-05-14T00:45:31.679Z,11.10
2023-05-14T00:48:18.742Z,11.05
2023-05-14T00:51:05.419Z,10.99
2023-05-14T00:53:52.611Z,11.07
2023-05-14T00:56:39.080Z,11.01
2023-05-14T00:59:26.372Z,11.10
2023-05-14T01:02:12.730Z,11.13
2023-05-14T01:04:59.492Z,11.21
2023-05-14T01:08:09.916Z,11.21
2023-05-14T01:11:26.760Z,11.20
2023-05-14T01:14:33.720Z,11.13
2023-05-14T01:17:21.923Z,11.12
2023-05-14T01:20:09.260Z,11.08
2023-05-14T01:22:55.889Z,11.04
2023-05-14T01:25:42.951Z,10.91
2023-05-14T01:28:33.349Z,10.75
2023-05-14T01:31:27.987Z,10.63
2023-05-14T01:34:15.253Z,10.49
2023-05-14T01:37:02.295Z,10.45
2023-05-14T01:39:49.585Z,10.43
2023-05-14T01:42:36.158Z,10.30
2023-05-14T01:45:23.777Z,10.39
2023-05-14T01:48:10.395Z,10.21
2023-05-14T01:50:57.367Z,10.23
2023-05-14T01:53:43.488Z,10.39
2023-05-14T01:56:30.311Z,10.39
2023-05-14T01:59:16.391Z,10.37
2023-05-14T02:02:02.962Z,10.31
2023-05-14T02:04:50.487Z,10.37
2023-05-14T02:07:37.214Z,10.35
2023-05-14T02:10:23.277Z,10.35
2023-05-14T02:13:09.835Z,10.35
2023-05-14T02:15:55.984Z,10.29
2023-05-14T02:18:42.482Z,10.20
2023-05-14T02:21:28.672Z,10.19
2023-05-14T02:24:15.260Z,10.14
2023-05-14T02:27:01.313Z,10.29
2023-05-14T02:29:47.904Z,10.26
2023-05-14T02:35:20.510Z,10.17
2023-05-14T02:38:06.819Z,10.13
2023-05-14T02:40:53.406Z,10.00
2023-05-14T02:43:39.870Z,10.05
2023-05-14T02:46:27.311Z,10.00
2023-05-14T02:49:14.750Z,9.94
2023-05-14T02:52:01.001Z,9.94
2023-05-14T02:54:46.964Z,9.92
2023-05-14T02:57:33.554Z,9.77
2023-05-14T03:00:20.119Z,9.94
2023-05-14T03:03:07.113Z,9.94
2023-05-14T03:05:54.221Z,9.91
2023-05-14T03:08:41.698Z,9.78
2023-05-14T03:11:28.320Z,9.73
2023-05-14T03:14:14.863Z,9.75
2023-05-14T03:17:01.161Z,9.83
2023-05-14T03:19:48.252Z,9.78
2023-05-14T03:22:34.067Z,9.75
2023-05-14T03:25:20.346Z,9.74
2023-05-14T03:28:07.154Z,9.72
2023-05-14T03:30:53.984Z,9.73
2023-05-14T03:33:40.245Z,9.81
2023-05-14T03:36:26.357Z,9.94
2023-05-14T03:39:15.552Z,9.95
2023-05-14T03:42:01.908Z,10.06
2023-05-14T03:44:48.101Z,10.12
2023-05-14T03:47:34.831Z,9.94
2023-05-14T03:50:21.332Z,10.25
2023-05-14T03:53:07.551Z,10.29
2023-05-14T03:55:53.515Z,10.35
2023-05-14T03:58:40.848Z,10.34
2023-05-14T04:01:27.621Z,10.53
2023-05-14T04:04:14.665Z,10.69
2023-05-14T04:07:00.806Z,11.27
2023-05-14T04:09:48.274Z,11.70
2023-05-14T04:12:34.534Z,12.02
2023-05-14T04:15:21.141Z,12.41
2023-05-14T04:18:07.780Z,12.76
2023-05-14T04:20:54.430Z,13.09
2023-05-14T04:23:40.077Z,13.33
2023-05-14T04:26:26.693Z,13.52
2023-05-14T04:29:12.740Z,13.82
2023-05-14T04:31:59.844Z,14.19
2023-05-14T04:34:47.003Z,14.38
2023-05-14T04:37:33.549Z,14.55
2023-05-14T04:40:19.673Z,14.76
2023-05-14T04:43:06.747Z,15.08
2023-05-14T04:45:53.073Z,15.19
2023-05-14T04:48:38.999Z,15.31
2023-05-14T04:51:24.952Z,15.35
2023-05-14T04:54:11.420Z,15.42
2023-05-14T04:56:57.298Z,15.60
2023-05-14T04:59:43.752Z,15.77
2023-05-14T05:02:29.986Z,15.73
2023-05-14T05:05:16.385Z,15.85
2023-05-14T05:08:02.461Z,15.97
2023-05-14T05:10:48.548Z,16.13
2023-05-14T05:13:34.510Z,16.34
2023-05-14T05:16:20.928Z,16.34
2023-05-14T05:19:07.211Z,16.24
2023-05-14T05:21:53.778Z,16.13
2023-05-14T05:24:39.553Z,16.25
2023-05-14T05:27:26.473Z,16.15
2023-05-14T05:30:12.760Z,16.06
2023-05-14T05:32:59.702Z,15.94
2023-05-14T05:35:45.644Z,15.85
2023-05-14T05:38:32.130Z,15.93
2023-05-14T05:41:18.880Z,16.03
2023-05-14T05:44:05.586Z,16.28
2023-05-14T05:46:51.593Z,16.52
2023-05-14T05:49:38.205Z,16.83
2023-05-14T05:52:24.543Z,16.93
2023-05-14T05:55:11.124Z,16.68
2023-05-14T05:57:57.384Z,16.86
2023-05-14T06:00:43.814Z,16.90
2023-05-14T06:03:30.038Z,16.83
2023-05-14T06:06:15.927Z,16.90
2023-05-14T06:09:02.256Z,17.04
2023-05-14T06:11:48.181Z,17.14
2023-05-14T06:14:33.796Z,17.40
2023-05-14T06:17:19.841Z,17.71
2023-05-14T06:20:08.465Z,17.89
2023-05-14T06:22:54.904Z,18.13
2023-05-14T06:25:41.137Z,18.35
2023-05-14T06:28:27.332Z,18.73
2023-05-14T06:31:13.888Z,18.97
2023-05-14T06:34:00.562Z,19.11
2023-05-14T06:36:47.008Z,19.38
2023-05-14T06:39:33.275Z,19.62
2023-05-14T06:42:19.644Z,19.86
2023-05-14T06:45:07.803Z,19.93
2023-05-14T06:47:53.718Z,20.16
2023-05-14T06:50:40.491Z,20.42
2023-05-14T06:53:26.177Z,20.57
2023-05-14T06:56:13.669Z,20.62
2023-05-14T06:58:59.719Z,20.87
2023-05-14T07:01:45.962Z,20.88
2023-05-14T07:04:32.118Z,20.91
2023-05-14T07:07:20.773Z,20.96
2023-05-14T07:10:08.365Z,21.02
2023-05-14T07:12:54.568Z,21.09
2023-05-14T07:15:40.442Z,20.88
2023-05-14T07:18:26.941Z,21.25
2023-05-14T07:21:14.296Z,21.36
2023-05-14T07:24:00.524Z,21.45
2023-05-14T07:26:47.266Z,21.74
2023-05-14T07:29:35.109Z,21.88
2023-05-14T07:32:21.042Z,22.02
2023-05-14T07:35:08.505Z,21.87
2023-05-14T07:37:54.565Z,22.10
2023-05-14T07:40:40.843Z,22.08
2023-05-14T07:43:26.818Z,22.24
2023-05-14T07:46:14.079Z,22.02
2023-05-14T07:49:00.195Z,21.92
2023-05-14T07:51:46.595Z,22.01
2023-05-14T07:54:32.179Z,22.07
2023-05-14T07:57:18.968Z,22.23
2023-05-14T08:00:08.681Z,22.16
2023-05-14T08:03:01.401Z,22.30
2023-05-14T08:05:47.533Z,22.28
2023-05-14T08:08:34.051Z,22.25
2023-05-14T08:11:19.759Z,22.21
2023-05-14T08:14:06.165Z,22.38
2023-05-14T08:16:52.535Z,22.37
2023-05-14T08:19:38.917Z,22.22
2023-05-14T08:22:25.401Z,22.39
2023-05-14T08:25:15.945Z,22.47
2023-05-14T08:28:03.841Z,22.57
2023-05-14T08:30:50.362Z,22.37
2023-05-14T08:33:36.271Z,22.33
2023-05-14T08:36:22.789Z,22.19
2023-05-14T08:39:08.825Z,22.10
2023-05-14T08:41:57.854Z,22.06
2023-05-14T08:44:57.248Z,22.14
2023-05-14T08:47:45.776Z,22.23
2023-05-14T08:50:32.060Z,22.31
2023-05-14T08:53:18.197Z,22.35
2023-05-14T08:56:03.986Z,22.48
2023-05-14T08:58:49.843Z,22.50
2023-05-14T09:01:38.282Z,22.48
2023-05-14T09:04:25.471Z,22.43
2023-05-14T09:07:11.714Z,22.46
2023-05-14T09:09:58.026Z,22.41
2023-05-14T09:12:44.129Z,22.40
2023-05-14T09:15:31.767Z,22.18
2023-05-14T09:18:17.880Z,22.09
2023-05-14T09:21:04.928Z,21.94
2023-05-14T09:23:55.290Z,21.90
2023-05-14T09:26:41.547Z,21.96
2023-05-14T09:29:29.359Z,21.74
2023-05-14T09:32:15.998Z,22.24
2023-05-14T09:35:17.982Z,22.16
2023-05-14T09:38:04.081Z,22.14
2023-05-14T09:40:50.942Z,21.85
2023-05-14T09:43:37.319Z,21.66
2023-05-14T09:46:23.877Z,21.51
2023-05-14T09:49:10.790Z,21.61
2023-05-14T09:51:58.174Z,21.63
2023-05-14T09:54:46.587Z,21.75
2023-05-14T09:57:32.552Z,21.86
2023-05-14T10:00:19.340Z,21.90
2023-05-14T10:03:07.144Z,22.16
2023-05-14T10:05:54.017Z,22.02
2023-05-14T10:08:42.036Z,22.26
2023-05-14T10:11:31.831Z,22.28
2023-05-14T10:14:25.448Z,22.37
2023-05-14T10:17:18.423Z,22.22
2023-05-14T10:20:06.078Z,22.28
2023-05-14T10:22:52.677Z,22.06
2023-05-14T10:25:40.285Z,22.01
2023-05-14T10:28:26.906Z,22.04
2023-05-14T10:31:13.328Z,21.78
2023-05-14T10:33:59.952Z,21.41
2023-05-14T10:36:46.170Z,21.09
2023-05-14T10:40:06.837Z,21.01
2023-05-14T10:42:53.975Z,20.94
2023-05-14T10:45:41.488Z,21.08
2023-05-14T10:48:28.612Z,20.87
2023-05-14T10:51:17.247Z,20.81
2023-05-14T10:54:04.161Z,20.61
2023-05-14T10:56:50.153Z,20.49
2023-05-14T10:59:37.494Z,20.46
2023-05-14T11:02:26.522Z,20.29
2023-05-14T11:05:17.912Z,20.54
2023-05-14T11:08:07.978Z,20.46
2023-05-14T11:10:56.605Z,20.42
2023-05-14T11:13:43.345Z,20.53
2023-05-14T11:16:31.349Z,20.43
2023-05-14T11:19:22.313Z,20.41
2023-05-14T11:22:09.465Z,20.45
2023-05-14T11:24:55.787Z,20.45
2023-05-14T11:27:47.550Z,20.47
2023-05-14T11:30:34.262Z,20.45
2023-05-14T11:33:22.091Z,20.40
2023-05-14T11:36:12.461Z,20.35
2023-05-14T11:38:59.830Z,20.35
2023-05-14T11:41:46.408Z,20.66
2023-05-14T11:44:33.033Z,20.93
2023-05-14T11:47:20.408Z,21.01
2023-05-14T11:50:09.370Z,21.03
2023-05-14T11:52:58.730Z,20.90
2023-05-14T11:55:46.504Z,20.74
2023-05-14T11:58:33.336Z,20.91
2023-05-14T12:01:20.306Z,20.76
2023-05-14T12:04:06.403Z,20.81
2023-05-14T12:06:53.362Z,20.78
2023-05-14T12:09:51.587Z,20.75
2023-05-14T12:12:37.748Z,20.73
2023-05-14T12:15:25.169Z,20.68
2023-05-14T12:18:23.448Z,20.73
2023-05-14T12:21:12.059Z,20.69
2023-05-14T12:24:00.173Z,20.76
2023-05-14T12:26:47.795Z,20.77
2023-05-14T12:29:39.620Z,20.69
2023-05-14T12:32:26.457Z,20.64
2023-05-14T12:35:12.435Z,20.70
2023-05-14T12:37:58.784Z,20.80
2023-05-14T12:40:45.285Z,20.88
2023-05-14T12:43:32.224Z,20.77
2023-05-14T12:46:18.733Z,20.52
2023-05-14T12:49:04.617Z,20.54
2023-05-14T12:51:56.747Z,20.48
2023-05-14T12:54:48.997Z,20.41
2023-05-14T12:57:35.758Z,20.36
2023-05-14T13:00:22.020Z,20.30
2023-05-14T13:03:08.236Z,20.25
2023-05-14T13:05:54.603Z,20.04
2023-05-14T13:08:42.710Z,20.14
2023-05-14T13:11:31.749Z,19.89
2023-05-14T13:14:20.057Z,20.01
2023-05-14T13:17:08.190Z,19.90
2023-05-14T13:19:54.677Z,19.88
2023-05-14T13:22:40.714Z,19.85
2023-05-14T13:25:27.658Z,19.88
2023-05-14T13:28:13.820Z,19.85
2023-05-14T13:31:08.626Z,19.84
2023-05-14T13:33:54.482Z,19.76
2023-05-14T13:36:43.594Z,19.79
2023-05-14T13:39:29.833Z,19.75
2023-05-14T13:42:16.353Z,19.70
2023-05-14T13:45:02.991Z,19.38
2023-05-14T14:53:22.427Z,20.07
2023-05-14T14:56:08.560Z,20.07
2023-05-14T14:58:54.033Z,20.10
2023-05-14T15:01:40.264Z,20.06
2023-05-14T15:04:26.000Z,20.17
2023-05-14T15:07:12.393Z,20.01
2023-05-14T15:09:58.059Z,20.20
2023-05-14T15:12:45.306Z,20.22
2023-05-14T15:15:31.974Z,20.23
2023-05-14T15:18:18.488Z,20.32
2023-05-14T15:21:04.099Z,20.36
2023-05-14T15:23:50.577Z,20.44
2023-05-14T15:26:36.324Z,20.49
2023-05-14T15:29:22.501Z,20.41
2023-05-14T15:32:08.738Z,20.39
2023-05-14T15:34:55.745Z,20.22
2023-05-14T15:37:43.865Z,20.38
2023-05-14T15:40:30.816Z,20.33
2023-05-14T15:43:16.659Z,20.31
2023-05-14T15:46:02.854Z,20.33
2023-05-14T15:48:49.003Z,20.32
2023-05-14T15:51:34.995Z,20.29
2023-05-14T15:54:20.871Z,20.19
2023-05-14T15:57:07.243Z,20.35
2023-05-14T15:59:52.960Z,20.37
2023-05-14T16:02:40.030Z,20.31
2023-05-14T16:05:25.968Z,19.92
2023-05-14T16:08:12.458Z,20.16
2023-05-14T16:10:58.598Z,19.88
2023-05-14T16:13:45.065Z,19.95
2023-05-14T16:16:30.790Z,19.87
2023-05-14T16:19:18.183Z,19.81
2023-05-14T16:22:04.017Z,19.78
2023-05-14T16:24:50.465Z,19.57
2023-05-14T16:27:36.532Z,19.67
2023-05-14T16:30:23.124Z,19.62
2023-05-14T16:33:09.183Z,19.59
2023-05-14T16:35:55.786Z,19.56
2023-05-14T16:38:52.353Z,19.41
2023-05-14T16:41:43.420Z,19.33
2023-05-14T16:44:29.268Z,19.32
2023-05-14T16:47:15.739Z,19.29
2023-05-14T16:50:01.981Z,19.30
2023-05-14T16:52:47.923Z,19.20
2023-05-14T16:55:33.474Z,19.20
2023-05-14T16:58:20.062Z,19.16
2023-05-14T17:01:08.093Z,19.15
2023-05-14T17:03:57.673Z,19.13
2023-05-14T17:06:46.028Z,19.10
2023-05-14T17:09:34.880Z,18.94
2023-05-14T17:12:20.641Z,19.06
2023-05-14T17:15:07.535Z,18.76
2023-05-14T17:17:54.752Z,19.02
2023-05-14T17:20:41.059Z,18.89
2023-05-14T17:23:27.668Z,19.04
2023-05-14T17:26:15.028Z,18.95
2023-05-14T17:29:00.499Z,18.98
2023-05-14T17:31:48.283Z,18.83
2023-05-14T17:34:34.191Z,18.89
2023-05-14T17:37:20.547Z,18.96
2023-05-14T17:40:07.423Z,18.84
2023-05-14T17:42:54.364Z,18.87
2023-05-14T17:45:53.276Z,18.90
2023-05-14T17:48:40.979Z,18.78
2023-05-14T17:51:26.892Z,18.83
2023-05-14T17:54:13.120Z,18.76
2023-05-14T17:56:59.007Z,18.66
2023-05-14T17:59:45.142Z,18.64
2023-05-14T18:02:31.036Z,18.60
2023-05-14T18:05:20.505Z,18.54
2023-05-14T18:08:06.589Z,18.50
2023-05-14T18:10:52.634Z,18.44
2023-05-14T18:13:38.268Z,18.41
2023-05-14T18:16:25.090Z,18.38
2023-05-14T18:19:11.688Z,18.23
2023-05-14T18:21:58.175Z,18.32
2023-05-14T18:24:44.482Z,18.27
2023-05-14T18:27:31.229Z,18.06
2023-05-14T18:30:17.250Z,18.12
2023-05-14T18:33:03.582Z,17.68
2023-05-14T18:35:49.251Z,17.93
2023-05-14T18:38:35.780Z,17.83
2023-05-14T18:41:21.557Z,17.85
2023-05-14T18:44:07.865Z,17.84
2023-05-14T18:46:54.982Z,17.47
2023-05-14T18:49:42.522Z,17.73
2023-05-14T18:52:28.831Z,17.85
2023-05-14T18:55:14.972Z,17.78
2023-05-14T18:58:01.357Z,17.84
2023-05-14T19:00:47.696Z,17.83
2023-05-14T19:03:33.786Z,17.68
2023-05-14T19:06:20.469Z,17.85
2023-05-14T19:09:06.482Z,17.85
2023-05-14T19:11:52.731Z,17.84
2023-05-14T19:14:38.256Z,17.69
2023-05-14T19:17:24.996Z,17.79
2023-05-14T19:20:11.185Z,17.61
2023-05-14T19:22:57.300Z,17.35
2023-05-14T19:25:42.883Z,17.54
2023-05-14T19:28:28.977Z,17.52
2023-05-14T19:31:15.867Z,17.40
2023-05-14T19:34:03.894Z,17.41
2023-05-14T19:37:02.684Z,17.34
2023-05-14T19:39:55.481Z,17.43
2023-05-14T19:42:41.631Z,17.43
2023-05-14T19:45:28.142Z,17.44
2023-05-14T19:48:16.142Z,17.44
2023-05-14T19:51:09.891Z,17.37
2023-05-14T19:53:56.679Z,17.14
2023-05-14T19:56:43.506Z,17.33
2023-05-14T19:59:30.032Z,17.42
2023-05-14T20:02:22.043Z,17.19
2023-05-14T20:05:10.873Z,17.43
2023-05-14T20:07:58.096Z,17.38
2023-05-14T20:10:45.338Z,17.43
2023-05-14T20:13:37.693Z,17.28
2023-05-14T20:16:24.088Z,17.20
2023-05-14T20:19:14.421Z,17.21
2023-05-14T20:22:09.386Z,17.26
2023-05-14T20:24:56.394Z,17.26
2023-05-14T20:27:43.692Z,17.11
2023-05-14T20:30:31.344Z,17.27
2023-05-14T20:33:17.977Z,17.34
2023-05-14T20:36:08.212Z,17.34
2023-05-14T20:38:56.111Z,17.33
2023-05-14T20:41:45.663Z,17.31
2023-05-14T20:44:32.296Z,17.21
2023-05-14T20:47:24.612Z,17.32
2023-05-14T20:50:13.881Z,17.17
2023-05-14T20:53:00.486Z,16.98
2023-05-14T20:55:46.720Z,17.02
2023-05-14T20:58:38.821Z,17.02
2023-05-14T21:01:25.735Z,16.93
2023-05-14T21:04:15.865Z,16.98
2023-05-14T21:07:07.313Z,17.01
2023-05-14T21:09:54.648Z,16.97
2023-05-14T21:12:45.882Z,16.72
2023-05-14T21:15:32.861Z,16.98
2023-05-14T21:18:22.677Z,17.05
2023-05-14T21:21:09.354Z,17.09
2023-05-14T21:23:55.876Z,16.79
2023-05-14T21:26:42.797Z,16.87
2023-05-14T21:29:29.490Z,16.69
2023-05-14T21:32:24.089Z,16.72
2023-05-14T21:35:10.471Z,16.52
2023-05-14T21:37:57.025Z,16.65
2023-05-14T21:40:43.541Z,16.55
2023-05-14T21:43:30.855Z,16.52
2023-05-14T21:46:17.558Z,16.30
2023-05-14T21:49:04.580Z,16.53
2023-05-14T21:51:53.272Z,16.38
2023-05-14T21:54:40.602Z,16.47
2023-05-14T21:57:28.230Z,16.53
2023-05-14T22:00:18.920Z,16.33
2023-05-14T22:03:10.979Z,16.36
2023-05-14T22:05:57.736Z,16.17
2023-05-14T22:08:51.125Z,16.08
2023-05-14T22:11:37.898Z,16.10
2023-05-14T22:14:26.596Z,16.10
2023-05-14T22:17:16.325Z,16.05
2023-05-14T22:20:05.715Z,15.97
2023-05-14T22:22:52.552Z,15.78
2023-05-14T22:25:39.140Z,15.88
2023-05-14T22:28:28.950Z,15.91
2023-05-14T22:31:17.397Z,15.88
2023-05-14T22:34:04.490Z,15.85
2023-05-14T22:36:51.188Z,15.62
2023-05-14T22:39:38.065Z,15.73
2023-05-14T22:42:24.481Z,15.71
2023-05-14T22:45:15.236Z,15.69
2023-05-14T22:48:01.629Z,15.68
2023-05-14T22:50:48.964Z,15.73
2023-05-14T22:53:36.278Z,15.50
2023-05-14T22:56:23.099Z,15.44
2023-05-14T22:59:09.970Z,15.52
2023-05-14T23:01:59.021Z,15.60
2023-05-14T23:04:45.811Z,15.66
2023-05-14T23:07:32.602Z,15.64
2023-05-14T23:10:18.969Z,15.55
2023-05-14T23:13:08.996Z,15.33
2023-05-14T23:16:01.050Z,15.54
2023-05-14T23:18:47.818Z,15.57
2023-05-14T23:21:39.582Z,15.52
2023-05-14T23:24:26.436Z,15.54
2023-05-14T23:27:12.706Z,15.58
2023-05-14T23:30:04.003Z,15.47
2023-05-14T23:32:53.541Z,15.65
2023-05-14T23:35:42.691Z,15.41
2023-05-14T23:38:34.997Z,15.68
2023-05-14T23:41:22.817Z,15.74
2023-05-14T23:44:12.224Z,15.76
2023-05-14T23:47:01.830Z,15.76
2023-05-14T23:49:52.184Z,15.60
2023-05-14T23:52:39.182Z,15.44
2023-05-14T23:55:26.032Z,15.42
2023-05-14T23:58:13.439Z,15.35
